createdAt,value
2019-05-06T04:02:07.019Z,101437.05
2019-05-06T04:05:37.106Z,101436.87
2019-05-06T04:09:07.269Z,101432.16
2019-05-06T04:12:37.325Z,101428.79
2019-05-06T04:16:07.645Z,101427.1
2019-05-06T04:19:37.760Z,101427.92
2019-05-06T04:23:08.805Z,101423.39
2019-05-06T04:26:38.978Z,101420.92
2019-05-06T04:30:10.042Z,101428.76
2019-05-06T04:33:39.086Z,101433.19
2019-05-06T04:37:09.145Z,101436.18
2019-05-06T04:40:40.259Z,101437.78
2019-05-06T04:44:13.793Z,101436.59
2019-05-06T04:47:44.518Z,101436.55
2019-05-06T04:52:43.148Z,101425.15
2019-05-06T04:56:16.667Z,101428.96
2019-05-06T04:59:46.662Z,101427.28
2019-05-06T05:03:17.765Z,101427.7
2019-05-06T05:06:47.818Z,101418.57
2019-05-06T05:10:17.861Z,101425.64
2019-05-06T05:13:47.916Z,101422.48
2019-05-06T05:17:17.999Z,101425.65
2019-05-06T05:20:49.069Z,101423.68
2019-05-06T05:24:19.173Z,101420.23
2019-05-06T05:27:49.238Z,101422.64
2019-05-06T05:31:19.234Z,101421.79
2019-05-06T05:34:52.090Z,101420.5
2019-05-06T05:38:22.794Z,101419.58
2019-05-06T05:41:53.390Z,101417.48
2019-05-06T05:45:23.535Z,101417.71
2019-05-06T05:48:52.586Z,101413.68
2019-05-06T05:52:23.655Z,101422.6
2019-05-06T05:55:54.732Z,101408.78
2019-05-06T05:59:24.793Z,101406.17
2019-05-06T06:02:54.851Z,101406.95
2019-05-06T06:06:24.955Z,101407.42
2019-05-06T06:09:55.019Z,101406.46
2019-05-06T06:13:26.129Z,101410.85
2019-05-06T06:16:56.216Z,101400.43
2019-05-06T06:20:26.256Z,101410.62
2019-05-06T06:23:56.343Z,101398.7
2019-05-06T06:27:26.516Z,101394.21
2019-05-06T06:30:57.466Z,101407.92
2019-05-06T06:34:27.521Z,101388.43
2019-05-06T06:37:57.568Z,101393.34
2019-05-06T06:41:27.610Z,101393.29
2019-05-06T06:44:57.817Z,101390.45
2019-05-06T06:48:28.812Z,101392.1
2019-05-06T06:51:59.810Z,101392.95
2019-05-06T06:55:31.964Z,101398.84
2019-05-06T06:59:02.883Z,101392.11
2019-05-06T07:02:34.013Z,101390.39
2019-05-06T07:06:04.114Z,101390.96
2019-05-06T07:09:34.230Z,101384.36
2019-05-06T07:13:04.326Z,101393.21
2019-05-06T07:16:34.446Z,101383.56
2019-05-06T07:20:04.551Z,101386.48
2019-05-06T07:23:34.595Z,101383.2
2019-05-06T07:27:04.620Z,101388.26
2019-05-06T07:30:34.740Z,101388.14
2019-05-06T07:34:04.792Z,101405.45
2019-05-06T07:37:34.850Z,101411.06
2019-05-06T07:41:05.910Z,101381.26
2019-05-06T07:44:36.991Z,101389.04
2019-05-06T07:48:07.071Z,101388.25
2019-05-06T07:51:37.263Z,101386.37
2019-05-06T07:55:07.282Z,101385.59
2019-05-06T07:58:36.322Z,101377.01
2019-05-06T08:02:07.359Z,101391.03
2019-05-06T08:05:51.446Z,101382.87
2019-05-06T08:09:13.046Z,101393.71
2019-05-06T08:12:44.505Z,101403.12
2019-05-06T08:16:14.539Z,101390.42
2019-05-06T08:19:44.596Z,101392.75
2019-05-06T08:23:14.698Z,101396.47
2019-05-06T08:26:44.920Z,101389.62
2019-05-06T08:30:14.938Z,101384.7
2019-05-06T08:33:44.942Z,101387.64
2019-05-06T08:37:14.058Z,101392.23
2019-05-06T08:40:45.124Z,101385.87
2019-05-06T08:44:15.254Z,101378.03
2019-05-06T08:47:45.298Z,101383.92
2019-05-06T08:51:15.335Z,101380.82
2019-05-06T08:54:44.423Z,101384.48
2019-05-06T08:58:15.499Z,101388.51
2019-05-06T09:01:45.669Z,101388.35
2019-05-06T09:05:15.669Z,101380.7
2019-05-06T09:08:45.759Z,101395.23
2019-05-06T09:12:15.832Z,101388.21
2019-05-06T09:15:46.549Z,101383.36
2019-05-06T09:19:17.494Z,101384.92
2019-05-06T09:22:47.553Z,101386.57
2019-05-06T09:26:17.602Z,101385
2019-05-06T09:29:47.631Z,101384.11
2019-05-06T09:33:16.706Z,101394.98
2019-05-06T09:36:52.543Z,101385.89
2019-05-06T09:40:22.865Z,101387.59
2019-05-06T09:43:53.751Z,101388.57
2019-05-06T09:47:24.798Z,101396.25
2019-05-06T09:50:54.920Z,101391.01
2019-05-06T09:54:25.979Z,101380.95
2019-05-06T09:57:56.057Z,101377.64
2019-05-06T10:01:26.138Z,101403.61
2019-05-06T10:04:56.397Z,101396.2
2019-05-06T10:08:26.363Z,101397.15
2019-05-06T10:11:56.417Z,101416.78
2019-05-06T10:15:26.459Z,101424.43
2019-05-06T10:18:56.543Z,101424.46
2019-05-06T10:22:26.671Z,101386.85
2019-05-06T10:25:56.655Z,101420.93
2019-05-06T10:29:24.660Z,101410
2019-05-06T10:32:54.747Z,101389.42
2019-05-06T10:36:24.808Z,101400.48
2019-05-06T10:39:55.922Z,101368.85
2019-05-06T10:43:26.015Z,101382.64
2019-05-06T10:46:55.077Z,101372.32
2019-05-06T10:50:25.093Z,101375
2019-05-06T10:53:56.114Z,101381.38
2019-05-06T10:57:26.191Z,101370.69
2019-05-06T11:00:56.370Z,101378.52
2019-05-06T11:04:26.395Z,101368.3
2019-05-06T11:07:56.466Z,101365.85
2019-05-06T11:11:34.894Z,101367.75
2019-05-06T11:15:04.392Z,101377.5
2019-05-06T11:18:35.437Z,101387.71
2019-05-06T11:22:05.525Z,101390.82
2019-05-06T11:25:36.127Z,101390.7
2019-05-06T11:29:07.683Z,101404.56
2019-05-06T11:32:41.934Z,101404.76
2019-05-06T11:36:15.128Z,101401.09
2019-05-06T11:39:45.839Z,101391.6
2019-05-06T11:43:13.899Z,101395.43
2019-05-06T11:46:44.928Z,101407.87
2019-05-06T11:50:15.076Z,101419.17
2019-05-06T11:53:45.118Z,101393.1
2019-05-06T11:57:15.158Z,101401.87
2019-05-06T12:00:46.125Z,101392.8
2019-05-06T12:04:16.179Z,101403.73
2019-05-06T12:08:00.738Z,101382.29
2019-05-06T12:11:23.621Z,101390.31
2019-05-06T12:14:54.359Z,101381.47
2019-05-06T12:18:25.968Z,101380.46
2019-05-06T12:21:55.200Z,101381.25
2019-05-06T12:25:26.198Z,101393.82
2019-05-06T12:28:56.952Z,101378.98
2019-05-06T12:32:27.053Z,101367.84
2019-05-06T12:35:57.092Z,101374.28
2019-05-06T12:39:26.094Z,101394.92
2019-05-06T12:42:56.199Z,101381.92
2019-05-06T12:46:26.221Z,101386.45
2019-05-06T12:49:57.380Z,101384.26
2019-05-06T12:53:28.240Z,101385.57
2019-05-06T12:56:59.455Z,101381.65
2019-05-06T13:00:30.522Z,101400.93
2019-05-06T13:04:00.510Z,101405.37
2019-05-06T13:07:32.799Z,101390.52
2019-05-06T13:11:04.468Z,101390.9
2019-05-06T13:14:34.604Z,101375.81
2019-05-06T13:18:07.473Z,101370.4
2019-05-06T13:21:37.779Z,101376.37
2019-05-06T13:25:09.254Z,101372.36
2019-05-06T13:28:42.135Z,101363.42
2019-05-06T13:32:12.756Z,101377.68
2019-05-06T13:35:41.910Z,101358.89
2019-05-06T13:39:14.838Z,101369.28
2019-05-06T13:42:45.529Z,101368.5
2019-05-06T13:46:15.580Z,101360.67
2019-05-06T13:49:45.661Z,101360.16
2019-05-06T13:53:15.787Z,101354.12
2019-05-06T13:56:51.884Z,101364.12
2019-05-06T14:00:22.425Z,101368.94
2019-05-06T14:03:52.753Z,101396.89
2019-05-06T14:07:24.750Z,101396.28
2019-05-06T14:11:00.003Z,101375.23
2019-05-06T14:14:31.996Z,101374.96
2019-05-06T14:18:02.567Z,101388.89
2019-05-06T14:21:32.827Z,101410.82
2019-05-06T14:25:04.774Z,101405.81
2019-05-06T14:28:36.491Z,101388.4
2019-05-06T14:31:40.119Z,101383.46
2019-05-06T14:35:12.259Z,101388.84
2019-05-06T14:38:43.771Z,101386.92
2019-05-06T14:42:15.514Z,101384.67
2019-05-06T14:45:45.572Z,101391.78
2019-05-06T14:49:13.645Z,101391.87
2019-05-06T14:52:44.607Z,101402.28
2019-05-06T14:56:14.563Z,101403.94
2019-05-06T14:59:44.538Z,101389.25
2019-05-06T15:03:14.520Z,101396.26
2019-05-06T15:06:44.623Z,101386.63
2019-05-06T15:10:22.813Z,101384.12
2019-05-06T15:13:49.581Z,101377.71
2019-05-06T15:17:22.554Z,101383.79
2019-05-06T15:20:53.093Z,101379.75
2019-05-06T15:24:24.573Z,101378.53
2019-05-06T15:27:53.449Z,101383.73
2019-05-06T15:31:24.423Z,101378.46
2019-05-06T15:34:57.037Z,101383.7
2019-05-06T15:38:26.970Z,101381.71
2019-05-06T15:43:19.185Z,101370.17
2019-05-06T15:46:52.368Z,101375.37
2019-05-06T15:50:23.013Z,101382.62
2019-05-06T15:53:53.317Z,101394.62
2019-05-06T15:57:24.293Z,101387.6
2019-05-06T16:00:55.294Z,101376.88
2019-05-06T16:04:24.278Z,101380.65
2019-05-06T16:07:54.241Z,101377.29
2019-05-06T16:11:24.234Z,101376.26
2019-05-06T16:14:55.230Z,101372.64
2019-05-06T16:18:25.283Z,101390.76
2019-05-06T16:21:55.303Z,101389.71
2019-05-06T16:25:25.318Z,101391.49
2019-05-06T16:28:55.372Z,101386.6
2019-05-06T16:32:25.660Z,101387.54
2019-05-06T16:35:56.963Z,101386.15
2019-05-06T16:39:29.231Z,101378.92
2019-05-06T16:43:01.833Z,101386.15
2019-05-06T16:46:34.152Z,101375.96
2019-05-06T16:50:02.981Z,101386.54
2019-05-06T16:53:45.370Z,101380.82
2019-05-06T16:57:25.163Z,101387.71
2019-05-06T17:00:58.138Z,101388.32
2019-05-06T17:04:33.023Z,101390.72
2019-05-06T17:08:07.095Z,101391.07
2019-05-06T17:11:47.090Z,101392.68
2019-05-06T17:15:18.557Z,101398.98
2019-05-06T17:18:49.006Z,101405.18
2019-05-06T17:22:22.889Z,101420.22
2019-05-06T17:25:54.987Z,101413.32
2019-05-06T17:29:26.700Z,101404.67
2019-05-06T17:33:02.221Z,101420.5
2019-05-06T17:36:38.581Z,101410.61
2019-05-06T17:40:16.675Z,101409.54
2019-05-06T17:43:47.519Z,101411.8
2019-05-06T17:47:18.151Z,101413.12
2019-05-06T17:50:48.533Z,101403.2
2019-05-06T17:54:25.681Z,101410.62
2019-05-06T17:57:54.974Z,101411.92
2019-05-06T18:01:26.854Z,101409.74
2019-05-06T18:04:58.147Z,101419.79
2019-05-06T18:08:30.217Z,101413.85
2019-05-06T18:12:03.094Z,101410
2019-05-06T18:15:34.184Z,101411.8
2019-05-06T18:19:06.846Z,101415.79
2019-05-06T18:22:44.146Z,101413.62
2019-05-06T18:26:18.182Z,101414.71
2019-05-06T18:30:11.032Z,101415.31
2019-05-06T18:33:39.356Z,101415.53
2019-05-06T18:37:15.585Z,101415.18
2019-05-06T18:40:54.240Z,101429.21
2019-05-06T18:44:29.227Z,101429.33
2019-05-06T18:48:05.597Z,101429.23
2019-05-06T18:51:43.614Z,101433.9
2019-05-06T18:55:18.923Z,101443.21
2019-05-06T18:58:52.915Z,101442.06
2019-05-06T19:02:29.681Z,101443.67
2019-05-06T19:06:03.727Z,101449.4
2019-05-06T19:09:35.685Z,101446.25
2019-05-06T19:13:08.712Z,101452.78
2019-05-06T19:16:49.554Z,101453.35
2019-05-06T19:20:13.045Z,101463.41
2019-05-06T19:23:44.222Z,101464.21
2019-05-06T19:27:14.362Z,101461.26
2019-05-06T19:30:42.534Z,101457.53
2019-05-06T19:34:13.713Z,101456.64
2019-05-06T19:37:43.867Z,101454.31
2019-05-06T19:41:14.990Z,101455.89
2019-05-06T19:44:46.176Z,101457.55
2019-05-06T19:48:15.324Z,101458.23
2019-05-06T19:51:45.464Z,101460.96
2019-05-06T19:55:15.594Z,101462.25
2019-05-06T19:58:47.078Z,101460.89
2019-05-06T20:02:25.943Z,101462.48
2019-05-06T20:05:58.012Z,101467.78
2019-05-06T20:09:28.082Z,101466
2019-05-06T20:13:02.507Z,101466.09
2019-05-06T20:16:34.130Z,101463.46
2019-05-06T20:20:04.817Z,101466.93
2019-05-06T20:23:35.491Z,101461.92
2019-05-06T20:27:03.888Z,101466.14
2019-05-06T20:30:34.638Z,101472.34
2019-05-06T20:34:04.905Z,101469.98
2019-05-06T20:37:36.682Z,101472.91
2019-05-06T20:41:07.824Z,101474.13
2019-05-06T20:44:37.798Z,101473.02
2019-05-06T20:48:09.536Z,101474.45
2019-05-06T20:51:42.391Z,101473.63
2019-05-06T20:55:15.975Z,101464.2
2019-05-06T20:58:47.202Z,101463.14
2019-05-06T21:02:17.460Z,101465.08
2019-05-06T21:05:49.585Z,101463.6
2019-05-06T21:09:19.691Z,101465.7
2019-05-06T21:12:52.891Z,101463.2
2019-05-06T21:16:22.873Z,101459.94
